Time;durP1;ratioP1;P1;durP2;ratioP2;P2;SDS_P1;SDS_P2;PMS_P1;PMS_P2;Temp;Humidity;BMP_temperature;BMP_pressure;BME280_temperature;BME280_humidity;BME280_pressure;Samples;Min_cycle;Max_cycle;Signal;HPM_P1;HPM_P2
2021/11/27 00:00:08;;;;;;;;;3.25;3.25;;;;;9.12;61.94;98363.53;2089142;28;46972;-61
2021/11/27 00:01:08;;;;;;;;;4.75;4.75;;;;;9.13;61.73;98359.97;2082501;28;46890;-60
2021/11/27 00:02:09;;;;;;;;;4.67;4.67;;;;;9.11;61.89;98360.97;2099140;28;48175;-60
2021/11/27 00:03:10;;;;;;;;;6.00;6.00;;;;;9.12;61.80;98368.84;2091103;28;47263;-60
2021/11/27 00:04:10;;;;;;;;;0.60;0.60;;;;;9.11;61.74;98367.13;2085667;28;46656;-58
2021/11/27 00:05:12;;;;;;;;;4.33;3.00;;;;;9.10;62.08;98370.72;2090858;28;47509;-58
2021/11/27 00:06:13;;;;;;;;;5.00;5.00;;;;;9.10;61.75;98372.50;2090740;27;47424;-58
2021/11/27 00:07:13;;;;;;;;;5.25;4.75;;;;;9.09;62.09;98370.81;2090939;28;48297;-61
2021/11/27 00:08:16;;;;;;;;;5.00;5.00;;;;;9.09;61.99;98376.09;2091481;28;47921;-60
2021/11/27 00:09:17;;;;;;;;;4.80;4.80;;;;;9.09;62.11;98366.38;2091660;28;46190;-60
2021/11/27 00:10:20;;;;;;;;;7.00;5.33;;;;;9.08;61.96;98371.75;2090404;28;48091;-60
2021/11/27 00:11:21;;;;;;;;;3.00;3.00;;;;;9.06;61.84;98365.69;2093596;28;47745;-60
2021/11/27 00:12:21;;;;;;;;;4.00;4.00;;;;;9.06;62.02;98363.88;2095685;28;47260;-59
2021/11/27 00:13:23;;;;;;;;;5.50;5.50;;;;;9.04;62.01;98365.75;2108046;27;48505;-60
2021/11/27 00:14:23;;;;;;;;;3.40;3.40;;;;;9.04;61.88;98362.25;2108029;27;47342;-58
2021/11/27 00:15:27;;;;;;;;;4.00;3.00;;;;;9.04;61.97;98363.13;2091287;28;47570;-60
2021/11/27 00:16:28;;;;;;;;;5.00;3.60;;;;;9.02;62.00;98359.69;2091696;28;48524;-60
2021/11/27 00:17:28;;;;;;;;;3.00;3.00;;;;;9.01;62.19;98360.59;2090280;28;48144;-60
2021/11/27 00:18:29;;;;;;;;;5.00;4.00;;;;;9.01;62.14;98362.41;2089542;28;48249;-60
2021/11/27 00:19:30;;;;;;;;;5.00;5.00;;;;;9.00;61.77;98366.84;2091487;28;45185;-60
2021/11/27 00:20:35;;;;;;;;;5.00;4.00;;;;;9.00;62.05;98365.97;2086806;28;48090;-60
2021/11/27 00:21:35;;;;;;;;;2.20;2.20;;;;;8.99;62.21;98359.84;2089664;28;47972;-60
2021/11/27 00:22:36;;;;;;;;;5.00;4.00;;;;;8.98;62.07;98358.13;2091764;28;46347;-60
2021/11/27 00:23:39;;;;;;;;;2.60;2.60;;;;;8.97;61.87;98356.44;2091476;28;47485;-60
2021/11/27 00:24:39;;;;;;;;;4.40;3.20;;;;;8.96;62.08;98364.44;2091064;28;47358;-59
2021/11/27 00:25:41;;;;;;;;;5.00;3.00;;;;;8.95;62.18;98357.44;2091060;28;48042;-60
2021/11/27 00:26:41;;;;;;;;;4.00;4.00;;;;;8.95;62.25;98362.75;2089392;28;48083;-60
2021/11/27 00:27:42;;;;;;;;;4.00;4.00;;;;;8.93;62.21;98360.19;2088404;28;47750;-60
2021/11/27 00:28:43;;;;;;;;;5.00;5.00;;;;;8.93;61.90;98369.91;2091481;28;47689;-60
2021/11/27 00:29:44;;;;;;;;;4.20;3.20;;;;;8.92;62.14;98371.69;2099333;28;47246;-60
2021/11/27 00:30:45;;;;;;;;;4.25;4.00;;;;;8.91;62.08;98369.13;2090922;28;47144;-60
2021/11/27 00:31:46;;;;;;;;;5.00;3.80;;;;;8.90;62.13;98364.78;2090857;28;46873;-60
2021/11/27 00:32:47;;;;;;;;;6.25;3.50;;;;;8.89;61.88;98369.19;2091390;28;48005;-59
2021/11/27 00:33:47;;;;;;;;;4.00;4.00;;;;;8.90;62.15;98362.13;2091666;28;48215;-60
2021/11/27 00:34:48;;;;;;;;;5.00;5.00;;;;;8.89;62.15;98363.03;2101441;27;46181;-60
2021/11/27 00:35:49;;;;;;;;;3.00;3.00;;;;;8.87;62.10;98365.78;2107495;27;47902;-59
2021/11/27 00:36:51;;;;;;;;;3.00;3.00;;;;;8.88;62.01;98367.47;2087388;27;47324;-59
2021/11/27 00:37:54;;;;;;;;;4.40;4.40;;;;;8.87;62.02;98365.78;2085351;28;47173;-60
2021/11/27 00:38:55;;;;;;;;;2.50;2.50;;;;;8.87;61.89;98368.41;2088580;28;48102;-60
2021/11/27 00:39:56;;;;;;;;;3.00;3.00;;;;;8.87;62.15;98367.56;2089251;28;47429;-60
2021/11/27 00:40:56;;;;;;;;;3.00;3.00;;;;;8.87;61.96;98365.78;2091587;27;47180;-58
2021/11/27 00:41:57;;;;;;;;;3.67;3.33;;;;;8.87;61.99;98364.91;2091580;28;48319;-59
2021/11/27 00:42:58;;;;;;;;;3.33;3.33;;;;;8.87;61.93;98368.41;2089888;28;45552;-60
2021/11/27 00:43:59;;;;;;;;;3.25;3.25;;;;;8.87;61.79;98364.91;2083355;28;48501;-59
2021/11/27 00:45:00;;;;;;;;;4.00;3.00;;;;;8.87;61.97;98370.22;2083715;28;45402;-59
2021/11/27 00:46:02;;;;;;;;;3.00;3.00;;;;;8.87;61.97;98365.78;2085552;28;45581;-59
2021/11/27 00:47:02;;;;;;;;;4.00;4.00;;;;;8.87;61.60;98362.28;2082501;28;47667;-59
2021/11/27 00:48:05;;;;;;;;;3.00;3.00;;;;;8.86;61.71;98361.41;2089543;28;48336;-59
2021/11/27 00:49:06;;;;;;;;;1.00;1.00;;;;;8.86;61.89;98364.06;2091365;27;48180;-59
2021/11/27 00:50:09;;;;;;;;;3.00;3.00;;;;;8.87;61.55;98364.91;2088000;27;47135;-60
2021/11/27 00:51:14;;;;;;;;;3.00;2.00;;;;;8.87;61.70;98354.34;2084678;28;47592;-61
2021/11/27 00:52:15;;;;;;;;;2.75;2.00;;;;;8.86;61.51;98356.13;2082990;28;48207;-60
2021/11/27 00:53:18;;;;;;;;;3.75;3.00;;;;;8.85;61.46;98359.72;2090329;28;47584;-59
2021/11/27 00:54:22;;;;;;;;;4.75;3.00;;;;;8.86;61.28;98364.06;2087068;28;47274;-59
2021/11/27 00:55:23;;;;;;;;;3.00;3.00;;;;;8.88;61.55;98361.34;2092000;28;45327;-59
2021/11/27 00:56:25;;;;;;;;;4.67;2.00;;;;;8.88;61.70;98366.63;2099124;28;46505;-59
2021/11/27 00:57:25;;;;;;;;;2.50;2.25;;;;;8.88;61.30;98366.63;2091087;28;46965;-59
2021/11/27 00:58:25;;;;;;;;;2.67;2.67;;;;;8.89;61.40;98370.97;2090859;28;48077;-60
2021/11/27 00:59:26;;;;;;;;;1.33;1.33;;;;;8.90;61.44;98372.72;2091373;28;46852;-59
2021/11/27 01:00:32;;;;;;;;;4.33;4.33;;;;;8.91;61.39;98374.44;2091637;28;47526;-58
2021/11/27 01:01:34;;;;;;;;;2.50;2.25;;;;;8.91;61.38;98371.78;2087037;28;47501;-58
2021/11/27 01:02:34;;;;;;;;;4.75;3.00;;;;;8.93;61.30;98376.06;2087448;28;46257;-61
2021/11/27 01:03:38;;;;;;;;;3.33;1.67;;;;;8.93;61.21;98373.41;2091462;28;47329;-60
2021/11/27 01:04:39;;;;;;;;;4.25;3.25;;;;;8.93;61.22;98369.91;2091131;28;47179;-58
2021/11/27 01:05:41;;;;;;;;;4.00;4.00;;;;;8.93;61.26;98369.91;2091306;28;47396;-58
2021/11/27 01:06:41;;;;;;;;;4.00;2.00;;;;;8.94;61.05;98374.25;2087124;28;47240;-58
2021/11/27 01:07:43;;;;;;;;;3.00;3.00;;;;;8.92;61.02;98374.34;2096876;28;48301;-58
2021/11/27 01:08:44;;;;;;;;;2.50;2.50;;;;;8.92;60.76;98370.84;2092178;28;48409;-59
2021/11/27 01:09:45;;;;;;;;;3.00;3.00;;;;;8.90;60.86;98372.72;2083242;28;47264;-59
2021/11/27 01:10:50;;;;;;;;;2.50;2.50;;;;;8.87;60.98;98363.13;2082917;28;46997;-59
2021/11/27 01:11:53;;;;;;;;;3.00;2.00;;;;;8.86;60.57;98366.72;2091339;27;47723;-59
2021/11/27 01:12:54;;;;;;;;;3.25;3.25;;;;;8.83;60.57;98366.88;2090839;28;47350;-59
2021/11/27 01:13:59;;;;;;;;;2.00;2.00;;;;;8.81;60.60;98355.53;2082510;28;48301;-60
2021/11/27 01:15:00;;;;;;;;;2.00;2.00;;;;;8.78;60.57;98356.56;2090501;28;48361;-59
2021/11/27 01:16:02;;;;;;;;;3.25;3.00;;;;;8.76;60.59;98350.47;2090201;28;48363;-60
2021/11/27 01:17:07;;;;;;;;;1.00;1.00;;;;;8.75;60.51;98351.41;2086839;28;48774;-59
2021/11/27 01:18:07;;;;;;;;;2.00;2.00;;;;;8.72;60.55;98335.69;2082495;28;47348;-60
2021/11/27 01:19:10;;;;;;;;;1.67;1.00;;;;;8.71;60.56;98336.63;2090747;28;48233;-59
2021/11/27 01:20:15;;;;;;;;;1.00;1.00;;;;;8.70;60.50;98342.00;2098510;28;46422;-59
2021/11/27 01:21:22;;;;;;;;;1.00;1.00;;;;;8.67;60.54;98336.88;2083045;28;46500;-59
2021/11/27 01:22:22;;;;;;;;;1.00;1.00;;;;;8.66;60.44;98333.38;2083296;28;45269;-59
2021/11/27 01:23:24;;;;;;;;;1.33;1.33;;;;;8.64;60.46;98339.66;2099023;28;47197;-59
2021/11/27 01:24:25;;;;;;;;;1.00;1.00;;;;;8.62;60.43;98342.38;2098970;28;48240;-60
2021/11/27 01:25:26;;;;;;;;;1.33;1.33;;;;;8.62;60.49;98341.53;2090570;28;48265;-59
2021/11/27 01:26:27;;;;;;;;;2.75;1.00;;;;;8.60;60.28;98338.13;2099141;27;47341;-60
2021/11/27 01:27:28;;;;;;;;;3.00;2.33;;;;;8.58;60.26;98332.91;2099281;28;47344;-59
2021/11/27 01:28:29;;;;;;;;;0.67;0.67;;;;;8.56;60.23;98329.50;2085732;28;47368;-59
2021/11/27 01:29:30;;;;;;;;;2.75;2.25;;;;;8.54;60.05;98326.09;2090771;28;48311;-59
2021/11/27 01:30:31;;;;;;;;;1.00;1.00;;;;;8.51;60.04;98326.22;2091153;28;48639;-60
2021/11/27 01:31:33;;;;;;;;;3.00;2.00;;;;;8.49;59.79;98334.25;2091173;28;47400;-58
2021/11/27 01:32:35;;;;;;;;;1.00;1.00;;;;;8.48;59.79;98336.97;2091312;28;48371;-59
2021/11/27 01:33:37;;;;;;;;;3.50;1.50;;;;;8.45;59.87;98331.84;2091341;27;47239;-59
2021/11/27 01:34:39;;;;;;;;;2.00;1.75;;;;;8.44;59.84;98331.00;2090353;28;48132;-59
2021/11/27 01:35:40;;;;;;;;;1.00;1.00;;;;;8.41;59.58;98331.16;2086337;27;46666;-59
2021/11/27 01:36:41;;;;;;;;;0.00;0.00;;;;;8.40;59.55;98334.72;2087095;28;47349;-57
2021/11/27 01:37:42;;;;;;;;;1.00;1.00;;;;;8.40;59.38;98333.88;2091683;28;47401;-59
2021/11/27 01:38:43;;;;;;;;;0.00;0.00;;;;;8.38;59.45;98336.56;2091019;28;45417;-58
2021/11/27 01:39:44;;;;;;;;;0.00;0.00;;;;;8.37;59.15;98334.84;2091634;28;47261;-59
2021/11/27 01:40:45;;;;;;;;;1.00;1.00;;;;;8.35;58.89;98338.53;2091017;28;47360;-59
2021/11/27 01:41:46;;;;;;;;;0.50;0.00;;;;;8.35;59.06;98327.94;2091434;28;47510;-58
2021/11/27 01:42:47;;;;;;;;;0.00;0.00;;;;;8.32;58.88;98330.72;2087944;28;45393;-58
2021/11/27 01:43:48;;;;;;;;;0.00;0.00;;;;;8.31;58.88;98324.59;2090223;28;45991;-58
2021/11/27 01:44:49;;;;;;;;;2.00;0.50;;;;;8.29;58.79;98329.09;2091182;28;47263;-59
2021/11/27 01:45:50;;;;;;;;;0.00;0.00;;;;;8.27;58.63;98323.91;2091617;28;47332;-58
2021/11/27 01:46:52;;;;;;;;;1.00;1.00;;;;;8.27;58.75;98330.97;2081970;28;47480;-58
2021/11/27 01:47:58;;;;;;;;;0.00;0.00;;;;;8.25;58.61;98330.16;2085160;28;47286;-59
2021/11/27 01:49:00;;;;;;;;;0.00;0.00;;;;;8.23;58.81;98327.59;2092794;28;46220;-59
2021/11/27 01:50:01;;;;;;;;;0.00;0.00;;;;;8.22;58.69;98331.19;2092725;28;45267;-59
2021/11/27 01:51:20;;;;;;;;;0.33;0.33;;;;;8.21;58.81;98326.81;2091976;27;47438;-59
2021/11/27 01:52:21;;;;;;;;;0.00;0.00;;;;;8.20;58.76;98337.47;2091881;28;47182;-59
2021/11/27 01:53:23;;;;;;;;;1.00;1.00;;;;;8.17;58.78;98330.56;2092402;28;48323;-59
2021/11/27 01:54:23;;;;;;;;;0.00;0.00;;;;;8.17;58.78;98333.22;2086963;28;47302;-59
2021/11/27 01:55:25;;;;;;;;;0.00;0.00;;;;;8.16;58.83;98335.94;2092686;28;47247;-59
2021/11/27 01:56:28;;;;;;;;;0.25;0.25;;;;;8.14;58.84;98330.72;2092769;28;48330;-59
2021/11/27 01:57:29;;;;;;;;;0.00;0.00;;;;;8.13;58.85;98331.66;2092613;28;45372;-60
2021/11/27 01:58:31;;;;;;;;;0.33;0.33;;;;;8.11;59.03;98332.66;2092964;27;48251;-59
2021/11/27 01:59:34;;;;;;;;;1.50;1.00;;;;;8.09;58.96;98334.50;2090277;28;45362;-60
2021/11/27 02:00:41;;;;;;;;;0.00;0.00;;;;;8.06;59.32;98335.53;2092935;28;46024;-59
2021/11/27 02:01:42;;;;;;;;;0.00;0.00;;;;;8.05;59.10;98327.69;2090956;28;48260;-59
2021/11/27 02:02:44;;;;;;;;;0.00;0.00;;;;;8.04;59.32;98328.63;2086574;28;48196;-59
2021/11/27 02:03:45;;;;;;;;;1.00;1.00;;;;;8.03;59.31;98324.25;2092803;27;47352;-59
2021/11/27 02:04:46;;;;;;;;;1.00;1.00;;;;;8.01;59.70;98328.78;2092390;27;47541;-59
2021/11/27 02:05:47;;;;;;;;;0.50;0.50;;;;;7.99;59.27;98334.09;2092320;27;46768;-59
2021/11/27 02:06:47;;;;;;;;;0.00;0.00;;;;;7.99;59.77;98334.09;2092553;27;47006;-59
2021/11/27 02:07:50;;;;;;;;;1.67;1.67;;;;;7.97;59.71;98323.63;2092634;27;47775;-60
2021/11/27 02:08:52;;;;;;;;;1.00;1.00;;;;;7.96;59.55;98329.84;2092605;28;45347;-59
2021/11/27 02:09:53;;;;;;;;;0.00;0.00;;;;;7.96;59.70;98326.34;2085185;28;47361;-59
2021/11/27 02:10:54;;;;;;;;;1.00;1.00;;;;;7.96;59.79;98335.13;2086939;28;47218;-66
2021/11/27 02:11:56;;;;;;;;;1.00;1.00;;;;;7.96;59.83;98331.63;2092633;27;48376;-59
2021/11/27 02:12:57;;;;;;;;;1.00;0.75;;;;;7.95;59.89;98333.41;2091984;28;45429;-59
2021/11/27 02:13:58;;;;;;;;;1.33;0.00;;;;;7.95;59.65;98329.91;2091968;28;47080;-59
2021/11/27 02:14:59;;;;;;;;;3.00;1.75;;;;;7.95;59.95;98330.75;2083907;28;48327;-59
2021/11/27 02:15:59;;;;;;;;;2.00;1.00;;;;;7.95;59.89;98329.91;2089841;28;47442;-58
2021/11/27 02:17:00;;;;;;;;;1.00;1.00;;;;;7.95;59.93;98328.13;2092258;28;47373;-59
2021/11/27 02:18:00;;;;;;;;;1.67;1.67;;;;;7.95;59.95;98329.91;2092073;27;48016;-59
2021/11/27 02:19:01;;;;;;;;;1.00;1.00;;;;;7.94;60.06;98321.13;2091626;28;48180;-58
2021/11/27 02:20:05;;;;;;;;;0.00;0.00;;;;;7.93;59.90;98322.06;2091656;28;47151;-59
2021/11/27 02:21:14;;;;;;;;;1.00;1.00;;;;;7.95;60.15;98328.13;2084071;28;46877;-59
2021/11/27 02:22:15;;;;;;;;;1.50;0.75;;;;;7.94;60.42;98326.41;2089073;28;48280;-60
2021/11/27 02:23:16;;;;;;;;;2.50;1.00;;;;;7.95;60.10;98327.28;2092314;27;47464;-60
2021/11/27 02:24:18;;;;;;;;;1.00;1.00;;;;;7.95;60.25;98332.56;2092044;28;46161;-60
2021/11/27 02:25:22;;;;;;;;;1.25;1.25;;;;;7.95;60.00;98325.47;2091802;28;48427;-59
2021/11/27 02:26:28;;;;;;;;;1.75;1.75;;;;;7.94;60.17;98323.78;2090819;28;47283;-59
2021/11/27 02:27:29;;;;;;;;;1.75;0.75;;;;;7.94;60.11;98315.00;2084192;28;48449;-59
2021/11/27 02:28:31;;;;;;;;;0.33;0.33;;;;;7.94;60.31;98320.28;2087350;28;47246;-60
2021/11/27 02:29:34;;;;;;;;;1.00;1.00;;;;;7.94;60.33;98312.34;2091962;28;46868;-59
2021/11/27 02:30:35;;;;;;;;;1.00;1.00;;;;;7.94;60.11;98309.72;2091621;28;47580;-59
2021/11/27 02:31:37;;;;;;;;;2.00;2.00;;;;;7.93;60.12;98310.66;2108724;27;47438;-59
2021/11/27 02:32:39;;;;;;;;;1.00;1.00;;;;;7.91;60.31;98305.44;2108161;27;46156;-59
2021/11/27 02:33:40;;;;;;;;;1.00;0.00;;;;;7.91;60.10;98302.81;2091785;28;47410;-59
2021/11/27 02:34:40;;;;;;;;;1.00;1.00;;;;;7.91;60.22;98307.22;2092250;28;48526;-59
2021/11/27 02:35:41;;;;;;;;;1.00;1.00;;;;;7.90;60.08;98300.25;2090418;28;47297;-59
2021/11/27 02:36:46;;;;;;;;;0.33;0.33;;;;;7.89;60.23;98303.81;2083110;28;48292;-59
2021/11/27 02:37:46;;;;;;;;;1.00;1.00;;;;;7.89;60.29;98303.81;2091893;28;48466;-59
2021/11/27 02:38:47;;;;;;;;;1.00;1.00;;;;;7.89;60.33;98303.81;2092116;28;47955;-60
2021/11/27 02:39:48;;;;;;;;;1.00;1.00;;;;;7.89;60.22;98306.47;2092323;27;47267;-59
2021/11/27 02:40:49;;;;;;;;;1.00;1.00;;;;;7.89;60.26;98303.81;2092405;28;46011;-59
2021/11/27 02:41:53;;;;;;;;;0.25;0.25;;;;;7.87;59.96;98301.22;2092400;28;47502;-59
2021/11/27 02:42:53;;;;;;;;;1.00;1.00;;;;;7.86;60.16;98302.16;2092159;27;47454;-61
2021/11/27 02:43:54;;;;;;;;;0.00;0.00;;;;;7.85;60.00;98303.09;2090823;28;48120;-60
2021/11/27 02:44:54;;;;;;;;;2.00;0.33;;;;;7.85;60.16;98310.16;2092325;28;46306;-59
2021/11/27 02:45:55;;;;;;;;;0.67;0.00;;;;;7.83;59.90;98304.09;2090311;28;47331;-59
2021/11/27 02:46:57;;;;;;;;;0.00;0.00;;;;;7.83;59.90;98306.75;2083676;28;47430;-59
2021/11/27 02:47:57;;;;;;;;;1.00;1.00;;;;;7.82;60.39;98300.63;2096149;28;47457;-59
2021/11/27 02:48:58;;;;;;;;;1.33;0.33;;;;;7.80;60.08;98294.56;2100054;27;47827;-59
2021/11/27 02:50:01;;;;;;;;;1.67;1.67;;;;;7.80;59.88;98296.34;2090413;28;48251;-59
2021/11/27 02:51:02;;;;;;;;;1.00;1.00;;;;;7.79;59.75;98292.84;2086866;27;46647;-59
2021/11/27 02:52:05;;;;;;;;;0.00;0.00;;;;;7.77;59.85;98285.94;2089597;28;48289;-59
2021/11/27 02:53:06;;;;;;;;;2.00;2.00;;;;;7.76;59.95;98284.22;2090671;27;46972;-59
2021/11/27 02:54:06;;;;;;;;;0.00;0.00;;;;;7.75;59.74;98286.00;2091995;28;47670;-59
2021/11/27 02:55:08;;;;;;;;;0.00;0.00;;;;;7.75;59.94;98293.06;2092376;28;45904;-59
2021/11/27 02:56:09;;;;;;;;;2.00;0.50;;;;;7.74;59.92;98293.97;2092190;28;47407;-60
2021/11/27 02:57:09;;;;;;;;;1.00;1.00;;;;;7.73;59.65;98294.91;2091471;28;46154;-59
2021/11/27 02:58:10;;;;;;;;;2.00;0.67;;;;;7.72;59.76;98293.22;2091342;28;47296;-59
2021/11/27 02:59:13;;;;;;;;;2.00;1.00;;;;;7.71;59.81;98292.34;2092228;27;47715;-60
2021/11/27 03:00:18;;;;;;;;;1.00;1.00;;;;;7.71;59.88;98286.22;2090638;28;46985;-60
2021/11/27 03:01:19;;;;;;;;;0.00;0.00;;;;;7.69;60.28;98278.38;2091913;28;47160;-59
2021/11/27 03:02:19;;;;;;;;;2.25;1.00;;;;;7.67;59.68;98280.25;2092109;27;47194;-59
2021/11/27 03:03:20;;;;;;;;;2.00;1.00;;;;;7.67;59.93;98272.31;2084698;28;47501;-59
2021/11/27 03:04:21;;;;;;;;;0.00;0.00;;;;;7.66;59.87;98289.09;2090343;28;47678;-60
2021/11/27 03:05:22;;;;;;;;;0.00;0.00;;;;;7.64;59.76;98275.97;2092036;28;48009;-59
2021/11/27 03:06:22;;;;;;;;;2.00;1.00;;;;;7.65;59.84;98276.84;2091961;28;47162;-60
2021/11/27 03:07:23;;;;;;;;;0.00;0.00;;;;;7.64;59.99;98275.13;2091268;28;47147;-59
2021/11/27 03:08:24;;;;;;;;;0.00;0.00;;;;;7.64;59.92;98281.25;2092020;28;48199;-60
2021/11/27 03:09:24;;;;;;;;;1.67;1.00;;;;;7.64;59.86;98277.75;2094944;28;47420;-59
2021/11/27 03:10:25;;;;;;;;;0.00;0.00;;;;;7.64;60.04;98272.47;2091669;28;47161;-59
2021/11/27 03:11:26;;;;;;;;;1.00;0.00;;;;;7.61;59.70;98265.53;2097833;28;47248;-60
2021/11/27 03:12:27;;;;;;;;;0.75;0.00;;;;;7.62;59.73;98274.31;2083578;28;46848;-59
2021/11/27 03:13:31;;;;;;;;;0.00;0.00;;;;;7.62;59.83;98269.91;2091628;28;47194;-60
2021/11/27 03:14:32;;;;;;;;;0.00;0.00;;;;;7.61;59.75;98262.06;2090638;28;46877;-60
2021/11/27 03:15:37;;;;;;;;;1.33;0.67;;;;;7.60;59.82;98273.53;2083532;28;47658;-59
2021/11/27 03:16:38;;;;;;;;;1.75;0.00;;;;;7.59;60.09;98270.03;2088103;28;47362;-60
2021/11/27 03:17:40;;;;;;;;;0.00;0.00;;;;;7.58;60.06;98263.06;2089598;28;47447;-60
2021/11/27 03:18:44;;;;;;;;;0.75;0.00;;;;;7.58;59.88;98267.50;2082995;28;46949;-59
2021/11/27 03:19:44;;;;;;;;;0.00;0.00;;;;;7.57;59.97;98269.28;2094695;28;47269;-59
2021/11/27 03:20:45;;;;;;;;;1.00;1.00;;;;;7.57;60.05;98264.00;2099707;28;46966;-59
2021/11/27 03:21:46;;;;;;;;;1.00;1.00;;;;;7.56;60.16;98258.78;2099698;28;48635;-61
2021/11/27 03:22:48;;;;;;;;;0.25;0.25;;;;;7.56;59.99;98264.06;2091177;28;47639;-59
2021/11/27 03:23:49;;;;;;;;;0.75;0.75;;;;;7.56;59.98;98253.50;2099409;28;47781;-60
2021/11/27 03:24:50;;;;;;;;;0.00;0.00;;;;;7.54;59.98;98256.22;2096483;28;48351;-59
2021/11/27 03:25:50;;;;;;;;;1.00;1.00;;;;;7.53;59.97;98262.44;2092254;27;48414;-59
2021/11/27 03:26:51;;;;;;;;;1.00;1.00;;;;;7.53;59.94;98264.22;2088474;28;47458;-60
2021/11/27 03:27:52;;;;;;;;;0.67;0.67;;;;;7.52;59.75;98265.16;2095888;28;48421;-59
2021/11/27 03:28:52;;;;;;;;;0.67;0.67;;;;;7.52;60.00;98265.16;2099635;27;46835;-59
2021/11/27 03:29:53;;;;;;;;;1.33;0.00;;;;;7.49;59.74;98255.59;2083872;28;47085;-60
2021/11/27 03:30:53;;;;;;;;;1.00;1.00;;;;;7.49;59.98;98260.84;2086914;28;47385;-60
2021/11/27 03:32:00;;;;;;;;;0.00;0.00;;;;;7.48;60.07;98256.50;2091820;28;48285;-64
2021/11/27 03:33:00;;;;;;;;;1.00;1.00;;;;;7.49;59.90;98254.72;2091832;28;47522;-60
2021/11/27 03:34:01;;;;;;;;;0.00;0.00;;;;;7.47;59.93;98260.09;2091671;28;47189;-63
2021/11/27 03:35:02;;;;;;;;;1.00;1.00;;;;;7.47;59.87;98252.16;2084243;28;47338;-59
2021/11/27 03:36:04;;;;;;;;;0.75;0.25;;;;;7.48;60.07;98260.94;2091322;27;46944;-59
2021/11/27 03:37:04;;;;;;;;;0.25;0.25;;;;;7.46;60.00;98250.47;2091811;27;47383;-59
2021/11/27 03:38:05;;;;;;;;;0.00;0.00;;;;;7.46;59.94;98250.47;2092044;28;47175;-60
2021/11/27 03:39:06;;;;;;;;;0.00;0.00;;;;;7.47;59.73;98259.22;2099830;28;46337;-59
2021/11/27 03:40:09;;;;;;;;;1.00;1.00;;;;;7.46;59.73;98249.59;2099715;27;46835;-59
2021/11/27 03:41:11;;;;;;;;;0.00;0.00;;;;;7.45;59.96;98239.97;2093757;28;48098;-59
2021/11/27 03:42:15;;;;;;;;;0.00;0.00;;;;;7.44;59.92;98235.63;2089133;28;47200;-59
2021/11/27 03:43:16;;;;;;;;;1.00;0.50;;;;;7.44;60.12;98247.03;2096963;28;46484;-59
2021/11/27 03:44:17;;;;;;;;;0.33;0.33;;;;;7.45;60.30;98243.47;2098341;28;47094;-59
2021/11/27 03:45:20;;;;;;;;;0.00;0.00;;;;;7.45;60.44;98239.97;2092007;28;45798;-59
2021/11/27 03:46:20;;;;;;;;;1.75;1.00;;;;;7.45;60.03;98243.47;2089977;28;48315;-60
2021/11/27 03:47:21;;;;;;;;;0.00;0.00;;;;;7.45;59.94;98239.97;2097057;28;48315;-59
2021/11/27 03:48:42;;;;;;;;;2.00;2.00;;;;;7.46;60.09;98239.06;2091935;28;45300;-60
2021/11/27 03:49:42;;;;;;;;;0.75;0.75;;;;;7.44;60.00;98238.28;2089323;27;48426;-59
2021/11/27 03:50:47;;;;;;;;;0.00;0.00;;;;;7.43;59.85;98234.78;2095469;28;47682;-59
2021/11/27 03:51:47;;;;;;;;;0.50;0.00;;;;;7.42;59.91;98233.06;2094176;28;47391;-59
2021/11/27 03:52:48;;;;;;;;;1.67;1.67;;;;;7.44;60.04;98240.91;2091464;28;48148;-59
2021/11/27 03:53:49;;;;;;;;;0.00;0.00;;;;;7.43;59.85;98231.28;2091788;28;45615;-60
2021/11/27 03:54:51;;;;;;;;;1.00;0.00;;;;;7.42;60.05;98233.06;2091183;28;47193;-59
2021/11/27 03:55:51;;;;;;;;;0.50;0.50;;;;;7.41;60.16;98228.72;2091428;28;48290;-59
2021/11/27 03:56:54;;;;;;;;;1.00;0.33;;;;;7.42;59.99;98230.44;2091594;28;48386;-60
2021/11/27 03:57:54;;;;;;;;;2.00;2.00;;;;;7.41;60.04;98223.47;2097583;28;47734;-59
2021/11/27 03:58:58;;;;;;;;;1.00;1.00;;;;;7.41;59.93;98220.81;2095420;28;47225;-59
2021/11/27 03:59:59;;;;;;;;;1.50;1.50;;;;;7.40;59.76;98216.47;2099906;28;47093;-60
2021/11/27 04:01:01;;;;;;;;;0.00;0.00;;;;;7.40;59.98;98221.75;2086933;28;47312;-59
2021/11/27 04:02:02;;;;;;;;;0.25;0.25;;;;;7.41;60.07;98225.25;2091404;28;47400;-60
2021/11/27 04:03:06;;;;;;;;;1.00;1.00;;;;;7.40;59.83;98224.38;2086624;28;47283;-59
2021/11/27 04:04:07;;;;;;;;;0.00;0.00;;;;;7.39;59.72;98222.69;2102125;27;46062;-59
2021/11/27 04:05:08;;;;;;;;;1.75;1.00;;;;;7.38;59.68;98224.47;2105142;27;47364;-59
2021/11/27 04:06:10;;;;;;;;;1.75;0.00;;;;;7.38;59.70;98215.69;2083672;28;48232;-59
2021/11/27 04:07:10;;;;;;;;;0.00;0.00;;;;;7.38;59.99;98218.34;2088977;28;48230;-59
2021/11/27 04:08:11;;;;;;;;;1.00;0.33;;;;;7.37;60.01;98214.00;2097626;28;48214;-59
2021/11/27 04:09:12;;;;;;;;;1.50;1.50;;;;;7.38;59.93;98223.63;2090829;28;48096;-59
2021/11/27 04:10:15;;;;;;;;;1.00;1.00;;;;;7.37;59.89;98214.84;2087428;28;47406;-59
2021/11/27 04:11:15;;;;;;;;;1.50;0.00;;;;;7.37;60.07;98219.28;2091574;28;47239;-59
2021/11/27 04:12:16;;;;;;;;;0.33;0.33;;;;;7.35;60.09;98213.19;2092001;28;47499;-59
2021/11/27 04:13:18;;;;;;;;;0.67;0.67;;;;;7.35;59.82;98221.09;2090748;28;48124;-59
2021/11/27 04:14:19;;;;;;;;;1.00;1.00;;;;;7.34;59.75;98217.59;2083297;28;48211;-59
2021/11/27 04:15:19;;;;;;;;;0.00;0.00;;;;;7.34;59.95;98222.03;2085727;28;48370;-60
2021/11/27 04:16:20;;;;;;;;;0.33;0.33;;;;;7.33;59.97;98215.91;2090364;28;47215;-60
2021/11/27 04:17:21;;;;;;;;;0.00;0.00;;;;;7.32;59.82;98205.44;2090519;28;47433;-59
2021/11/27 04:18:21;;;;;;;;;1.33;1.00;;;;;7.32;59.73;98205.44;2092725;27;47384;-59
2021/11/27 04:19:22;;;;;;;;;0.00;0.00;;;;;7.31;59.93;98206.34;2091733;28;47267;-59
2021/11/27 04:20:22;;;;;;;;;0.00;0.00;;;;;7.32;59.98;98202.78;2090398;28;48426;-60
2021/11/27 04:21:23;;;;;;;;;0.00;0.00;;;;;7.31;59.99;98206.34;2088119;28;47320;-59
2021/11/27 04:22:24;;;;;;;;;2.00;0.00;;;;;7.31;59.76;98201.94;2083682;28;48266;-59
2021/11/27 04:23:24;;;;;;;;;0.67;0.00;;;;;7.31;59.85;98182.63;2082736;28;47755;-60
2021/11/27 04:24:25;;;;;;;;;0.00;0.00;;;;;7.30;59.57;98178.28;2092812;28;47312;-59
2021/11/27 04:25:26;;;;;;;;;0.00;0.00;;;;;7.30;59.99;98186.19;2096262;28;46335;-59
2021/11/27 04:26:27;;;;;;;;;0.00;0.00;;;;;7.30;59.76;98189.69;2088528;28;46945;-59
2021/11/27 04:27:28;;;;;;;;;0.00;0.00;;;;;7.29;59.81;98185.34;2083397;28;45518;-59
2021/11/27 04:28:29;;;;;;;;;0.00;0.00;;;;;7.29;59.80;98190.59;2099382;28;47419;-59
2021/11/27 04:29:29;;;;;;;;;0.00;0.00;;;;;7.29;59.54;98190.59;2099426;28;48270;-59
2021/11/27 04:30:32;;;;;;;;;0.00;0.00;;;;;7.28;59.69;98194.19;2091917;28;47728;-61
2021/11/27 04:31:32;;;;;;;;;0.00;0.00;;;;;7.28;59.62;98195.97;2091612;27;46999;-59
2021/11/27 04:32:33;;;;;;;;;0.00;0.00;;;;;7.27;59.88;98199.53;2087160;28;48396;-60
2021/11/27 04:33:33;;;;;;;;;0.00;0.00;;;;;7.27;59.74;98205.66;2090910;28;48139;-59
2021/11/27 04:34:34;;;;;;;;;0.00;0.00;;;;;7.26;59.63;98196.03;2090423;27;47144;-59
2021/11/27 04:35:35;;;;;;;;;0.00;0.00;;;;;7.25;59.93;98189.06;2091542;27;47205;-59
2021/11/27 04:36:35;;;;;;;;;0.00;0.00;;;;;7.26;59.88;98193.41;2090203;28;48394;-59
2021/11/27 04:37:36;;;;;;;;;0.00;0.00;;;;;7.27;59.98;98202.16;2083448;28;46766;-59
2021/11/27 04:38:37;;;;;;;;;0.00;0.00;;;;;7.25;59.47;98191.69;2089574;28;47014;-59
2021/11/27 04:39:39;;;;;;;;;0.00;0.00;;;;;7.26;59.77;98198.69;2099578;27;46951;-59
2021/11/27 04:40:41;;;;;;;;;0.00;0.00;;;;;7.25;59.63;98196.97;2099383;28;48310;-59
2021/11/27 04:41:41;;;;;;;;;0.00;0.00;;;;;7.25;59.54;98196.13;2084306;28;47034;-60
2021/11/27 04:42:43;;;;;;;;;0.00;0.00;;;;;7.25;59.69;98204.03;2087904;28;47715;-59
2021/11/27 04:43:43;;;;;;;;;0.75;0.75;;;;;7.24;59.64;98197.00;2084729;28;48393;-59
2021/11/27 04:44:44;;;;;;;;;0.67;0.67;;;;;7.24;59.54;98186.47;2088817;28;47075;-59
2021/11/27 04:45:45;;;;;;;;;0.00;0.00;;;;;7.23;59.33;98195.31;2086487;28;47700;-59
2021/11/27 04:46:45;;;;;;;;;0.00;0.00;;;;;7.23;59.55;98197.94;2090852;28;46176;-59
2021/11/27 04:47:46;;;;;;;;;0.00;0.00;;;;;7.23;59.55;98197.94;2092318;28;47199;-60
2021/11/27 04:48:47;;;;;;;;;0.00;0.00;;;;;7.23;59.69;98190.03;2099921;27;46149;-59
2021/11/27 04:49:50;;;;;;;;;1.00;1.00;;;;;7.24;59.48;98189.09;2086452;28;46761;-59
2021/11/27 04:50:51;;;;;;;;;0.00;0.00;;;;;7.23;59.91;98187.41;2091003;28;46566;-59
2021/11/27 04:51:52;;;;;;;;;0.50;0.50;;;;;7.23;59.61;98193.53;2095799;28;47272;-60
2021/11/27 04:52:52;;;;;;;;;0.00;0.00;;;;;7.25;59.55;98194.34;2094522;28;47260;-59